createdAt,value
2022-09-28T00:01:52.027Z,11.22
2022-09-28T00:04:18.778Z,11.24
2022-09-28T00:06:45.445Z,11.19
2022-09-28T00:09:12.071Z,11.20
2022-09-28T00:11:38.788Z,11.19
2022-09-28T00:14:07.456Z,11.21
2022-09-28T00:16:36.069Z,11.08
2022-09-28T00:19:05.357Z,11.12
2022-09-28T00:21:33.959Z,11.15
2022-09-28T00:24:17.530Z,11.05
2022-09-28T00:26:45.856Z,11.12
2022-09-28T00:29:22.349Z,11.17
2022-09-28T00:31:52.514Z,11.17
2022-09-28T00:34:19.612Z,11.18
2022-09-28T00:36:47.011Z,11.07
2022-09-28T00:39:14.853Z,11.15
2022-09-28T00:41:41.750Z,11.21
2022-09-28T00:44:26.716Z,11.09
2022-09-28T00:46:59.014Z,11.02
2022-09-28T00:49:33.230Z,11.15
2022-09-28T00:52:00.238Z,11.03
2022-09-28T00:54:26.952Z,11.03
2022-09-28T00:56:53.712Z,11.12
2022-09-28T00:59:20.534Z,11.23
2022-09-28T01:01:47.304Z,11.28
2022-09-28T01:04:14.204Z,11.29
2022-09-28T01:06:40.908Z,11.23
2022-09-28T01:09:14.202Z,11.30
2022-09-28T01:11:42.431Z,11.34
2022-09-28T01:14:12.490Z,11.35
2022-09-28T01:16:50.719Z,11.31
2022-09-28T01:19:44.331Z,11.33
2022-09-28T01:22:48.436Z,11.35
2022-09-28T01:25:46.032Z,11.37
2022-09-28T01:28:15.461Z,11.21
2022-09-28T01:30:56.694Z,11.27
2022-09-28T01:33:26.902Z,11.28
2022-09-28T01:35:58.467Z,11.22
2022-09-28T01:38:35.970Z,11.09
2022-09-28T01:41:03.428Z,11.22
2022-09-28T01:43:31.690Z,11.28
2022-09-28T01:46:14.887Z,11.16
2022-09-28T01:48:55.211Z,11.22
2022-09-28T01:52:02.325Z,11.27
2022-09-28T01:54:42.287Z,11.26
2022-09-28T01:57:15.362Z,11.27
2022-09-28T01:59:46.129Z,11.30
2022-09-28T02:02:16.387Z,11.33
2022-09-28T02:04:47.228Z,11.34
2022-09-28T02:07:23.457Z,11.35
2022-09-28T02:10:00.982Z,11.35
2022-09-28T02:12:34.584Z,11.25
2022-09-28T02:15:26.606Z,11.35
2022-09-28T02:17:53.533Z,11.35
2022-09-28T02:20:21.737Z,11.34
2022-09-28T02:22:50.949Z,11.36
2022-09-28T02:25:31.560Z,11.36
2022-09-28T02:28:04.163Z,11.35
2022-09-28T02:30:32.369Z,11.26
2022-09-28T02:33:23.464Z,11.32
2022-09-28T02:35:50.231Z,11.33
2022-09-28T02:38:18.600Z,11.28
2022-09-28T02:40:55.905Z,11.32
2022-09-28T02:43:48.365Z,11.32
2022-09-28T02:46:23.821Z,11.30
2022-09-28T02:49:21.306Z,11.30
2022-09-28T02:52:35.426Z,11.30
2022-09-28T02:55:18.918Z,11.28
2022-09-28T02:58:01.610Z,11.27
2022-09-28T03:00:29.971Z,11.21
2022-09-28T03:03:19.222Z,11.19
2022-09-28T03:06:11.591Z,11.15
2022-09-28T03:08:56.371Z,11.15
2022-09-28T03:11:33.292Z,11.12
2022-09-28T03:14:00.542Z,11.11
2022-09-28T03:16:36.994Z,11.06
2022-09-28T03:19:03.748Z,11.05
2022-09-28T03:21:30.503Z,11.04
2022-09-28T03:23:57.812Z,11.00
2022-09-28T03:26:24.491Z,10.97
2022-09-28T03:28:51.134Z,10.94
2022-09-28T03:31:22.944Z,10.90
2022-09-28T03:33:51.455Z,10.85
2022-09-28T03:36:18.384Z,10.80
2022-09-28T03:38:45.132Z,10.73
2022-09-28T03:41:11.824Z,10.69
2022-09-28T03:43:41.594Z,10.65
2022-09-28T03:46:08.545Z,10.60
2022-09-28T03:48:40.697Z,10.55
2022-09-28T03:51:10.081Z,10.52
2022-09-28T03:53:39.000Z,10.48
2022-09-28T03:56:14.155Z,10.48
2022-09-28T03:58:41.846Z,10.46
2022-09-28T04:01:16.454Z,10.46
2022-09-28T04:03:45.579Z,10.48
2022-09-28T04:06:12.290Z,10.48
2022-09-28T04:08:39.317Z,10.50
2022-09-28T04:11:06.364Z,10.52
2022-09-28T04:13:33.933Z,10.53
2022-09-28T04:16:01.696Z,10.48
2022-09-28T04:18:32.794Z,10.53
2022-09-28T04:21:28.942Z,10.57
2022-09-28T04:24:02.426Z,10.60
2022-09-28T04:26:29.165Z,10.54
2022-09-28T04:29:15.513Z,10.44
2022-09-28T04:31:46.481Z,10.45
2022-09-28T04:34:17.493Z,10.44
2022-09-28T04:36:45.152Z,10.44
2022-09-28T04:39:12.793Z,10.41
2022-09-28T04:41:41.888Z,10.40
2022-09-28T04:44:09.347Z,10.38
2022-09-28T04:46:36.216Z,10.33
2022-09-28T04:49:32.115Z,10.35
2022-09-28T04:52:06.458Z,10.37
2022-09-28T04:54:34.448Z,10.39
2022-09-28T04:57:03.445Z,10.38
2022-09-28T04:59:30.137Z,10.39
2022-09-28T05:01:56.922Z,10.43
2022-09-28T05:04:41.669Z,10.41
2022-09-28T05:07:27.082Z,10.45
2022-09-28T05:09:55.368Z,10.48
2022-09-28T05:12:22.152Z,10.52
2022-09-28T05:14:48.940Z,10.24
2022-09-28T05:17:15.666Z,10.38
2022-09-28T05:20:14.550Z,10.37
2022-09-28T05:22:41.643Z,10.51
2022-09-28T05:25:09.456Z,10.49
2022-09-28T05:27:47.648Z,10.58
2022-09-28T05:30:30.280Z,10.64
2022-09-28T05:33:32.936Z,10.66
2022-09-28T05:36:11.135Z,10.71
2022-09-28T05:38:38.217Z,10.70
2022-09-28T05:41:06.717Z,10.78
2022-09-28T05:43:33.614Z,10.80
2022-09-28T05:46:00.721Z,10.80
2022-09-28T05:48:28.426Z,10.85
2022-09-28T05:50:55.163Z,10.71
2022-09-28T05:53:21.993Z,10.78
2022-09-28T05:55:49.197Z,10.77
2022-09-28T05:58:16.373Z,10.87
2022-09-28T06:00:43.465Z,10.93
2022-09-28T06:03:14.181Z,10.80
2022-09-28T06:05:41.446Z,10.66
2022-09-28T06:08:10.769Z,10.84
2022-09-28T06:10:39.314Z,10.97
2022-09-28T06:13:06.731Z,11.06
2022-09-28T06:15:34.606Z,11.09
2022-09-28T06:18:03.669Z,11.08
2022-09-28T06:20:56.780Z,10.85
2022-09-28T06:23:31.371Z,10.89
2022-09-28T06:25:59.411Z,10.64
2022-09-28T06:28:27.056Z,10.75
2022-09-28T06:30:54.281Z,10.33
2022-09-28T06:33:22.068Z,10.52
2022-09-28T06:35:48.801Z,10.51
2022-09-28T06:38:15.884Z,10.61
2022-09-28T06:40:42.581Z,10.80
2022-09-28T06:43:15.277Z,10.95
2022-09-28T06:46:01.573Z,10.91
2022-09-28T06:48:32.625Z,11.05
2022-09-28T06:51:00.818Z,11.12
2022-09-28T06:53:40.638Z,11.20
2022-09-28T06:56:37.248Z,11.22
2022-09-28T06:59:04.558Z,11.18
2022-09-28T07:01:31.523Z,11.09
2022-09-28T07:04:18.500Z,10.97
2022-09-28T07:07:23.400Z,11.01
2022-09-28T07:10:17.248Z,11.18
2022-09-28T07:13:04.235Z,11.26
2022-09-28T07:15:40.404Z,11.31
2022-09-28T07:18:12.032Z,11.21
2022-09-28T07:20:52.378Z,11.24
2022-09-28T07:23:20.837Z,11.38
2022-09-28T07:26:11.305Z,11.45
2022-09-28T07:28:56.075Z,11.54
2022-09-28T07:31:38.114Z,11.33
2022-09-28T07:34:13.910Z,11.08
2022-09-28T07:36:59.875Z,11.17
2022-09-28T07:39:26.637Z,11.44
2022-09-28T07:41:56.748Z,11.44
2022-09-28T07:44:26.432Z,11.46
2022-09-28T07:46:54.474Z,11.23
2022-09-28T07:49:26.623Z,11.42
2022-09-28T07:52:12.573Z,11.81
2022-09-28T07:54:57.896Z,11.71
2022-09-28T07:57:43.393Z,11.73
2022-09-28T08:00:21.782Z,11.51
2022-09-28T08:02:48.845Z,11.61
2022-09-28T08:05:22.520Z,12.08
2022-09-28T08:07:49.266Z,12.04
2022-09-28T08:10:17.520Z,12.20
2022-09-28T08:13:06.471Z,11.96
2022-09-28T08:16:01.692Z,12.35
2022-09-28T08:18:51.073Z,12.66
2022-09-28T08:21:36.506Z,13.13
2022-09-28T08:24:03.179Z,13.44
2022-09-28T08:26:30.014Z,13.49
2022-09-28T08:28:57.796Z,13.29
2022-09-28T08:31:48.100Z,12.81
2022-09-28T08:34:39.492Z,12.58
2022-09-28T08:37:19.666Z,12.83
2022-09-28T08:40:05.398Z,13.01
2022-09-28T08:42:55.951Z,13.10
2022-09-28T08:45:45.568Z,13.04
2022-09-28T08:49:01.406Z,12.40
2022-09-28T08:52:19.243Z,12.26
2022-09-28T08:55:07.709Z,12.68
2022-09-28T08:57:45.348Z,13.00
2022-09-28T09:00:51.957Z,13.51
2022-09-28T09:03:32.792Z,13.84
2022-09-28T09:06:37.602Z,14.62
2022-09-28T09:10:05.240Z,15.43
2022-09-28T09:12:37.629Z,15.60
2022-09-28T09:15:28.607Z,15.75
2022-09-28T09:18:25.559Z,15.87
2022-09-28T09:21:18.071Z,16.39
2022-09-28T09:24:21.604Z,16.49
2022-09-28T09:26:52.656Z,16.77
2022-09-28T09:29:46.883Z,16.84
2022-09-28T09:32:29.266Z,16.64
2022-09-28T09:35:00.195Z,16.57
2022-09-28T09:38:19.677Z,16.44
2022-09-28T09:40:58.713Z,16.34
2022-09-28T09:44:10.922Z,16.24
2022-09-28T09:47:19.861Z,16.26
2022-09-28T09:50:13.656Z,16.39
2022-09-28T09:52:55.005Z,16.57
2022-09-28T09:55:30.456Z,16.62
2022-09-28T09:58:24.374Z,16.43
2022-09-28T10:01:06.188Z,16.37
2022-09-28T10:03:52.996Z,15.86
2022-09-28T10:06:27.565Z,15.87
2022-09-28T10:09:12.622Z,15.22
2022-09-28T10:11:50.052Z,15.10
2022-09-28T10:14:20.189Z,15.26
2022-09-28T10:16:54.547Z,15.46
2022-09-28T10:19:42.377Z,15.30
2022-09-28T10:22:29.003Z,15.01
2022-09-28T10:25:00.108Z,15.29
2022-09-28T10:27:34.020Z,15.11
2022-09-28T10:30:09.828Z,15.16
2022-09-28T10:32:41.701Z,15.00
2022-09-28T10:35:29.862Z,14.57
2022-09-28T10:38:05.130Z,14.06
2022-09-28T10:40:54.552Z,13.70
2022-09-28T10:44:07.051Z,13.51
2022-09-28T10:47:00.037Z,13.37
2022-09-28T10:49:35.808Z,13.47
2022-09-28T10:52:02.592Z,13.19
2022-09-28T10:54:37.228Z,12.83
2022-09-28T10:57:13.366Z,12.48
2022-09-28T10:59:54.069Z,12.76
2022-09-28T11:02:35.483Z,12.65
2022-09-28T11:05:22.182Z,13.06
2022-09-28T11:07:49.969Z,13.20
2022-09-28T11:10:22.913Z,13.32
2022-09-28T11:12:51.422Z,13.48
2022-09-28T11:15:26.147Z,13.28
2022-09-28T11:17:53.156Z,13.30
2022-09-28T11:20:27.526Z,12.84
2022-09-28T11:23:18.169Z,12.63
2022-09-28T11:26:06.919Z,12.80
2022-09-28T11:28:37.570Z,12.85
2022-09-28T11:31:11.969Z,12.99
2022-09-28T11:34:06.420Z,12.83
2022-09-28T11:37:02.356Z,13.04
2022-09-28T11:39:47.866Z,13.38
2022-09-28T11:42:20.834Z,13.37
2022-09-28T11:44:49.002Z,13.24
2022-09-28T11:47:41.729Z,13.46
2022-09-28T11:50:28.851Z,13.40
2022-09-28T11:53:13.425Z,13.15
2022-09-28T11:55:51.026Z,13.28
2022-09-28T11:58:22.896Z,13.16
2022-09-28T12:00:55.030Z,13.33
2022-09-28T12:03:39.547Z,13.34
2022-09-28T12:06:11.081Z,13.59
2022-09-28T12:08:42.299Z,13.75
2022-09-28T12:11:13.153Z,13.75
2022-09-28T12:14:05.301Z,13.72
2022-09-28T12:17:04.099Z,13.83
2022-09-28T12:19:32.757Z,13.23
2022-09-28T12:22:12.807Z,13.14
2022-09-28T12:24:43.256Z,13.16
2022-09-28T12:27:09.933Z,13.19
2022-09-28T12:29:56.095Z,13.37
2022-09-28T12:32:37.649Z,13.27
2022-09-28T12:35:15.290Z,13.23
2022-09-28T12:37:58.790Z,13.53
2022-09-28T12:40:45.659Z,13.39
2022-09-28T12:43:31.276Z,13.56
2022-09-28T12:46:11.982Z,13.65
2022-09-28T12:49:56.330Z,13.75
2022-09-28T12:52:19.070Z,13.61
2022-09-28T12:55:01.365Z,13.49
2022-09-28T12:57:46.715Z,13.51
2022-09-28T13:00:16.614Z,13.77
2022-09-28T13:03:02.592Z,13.88
2022-09-28T13:05:47.685Z,13.67
2022-09-28T13:08:31.083Z,13.64
2022-09-28T13:11:05.474Z,13.92
2022-09-28T13:14:10.047Z,13.88
2022-09-28T13:16:36.942Z,13.71
2022-09-28T13:19:18.832Z,14.01
2022-09-28T13:22:27.067Z,14.24
2022-09-28T13:24:55.799Z,14.33
2022-09-28T13:27:33.494Z,14.19
2022-09-28T13:30:01.294Z,14.19
2022-09-28T13:32:31.617Z,13.90
2022-09-28T13:34:58.898Z,14.25
2022-09-28T13:37:26.007Z,14.49
2022-09-28T13:39:59.393Z,14.53
2022-09-28T13:42:47.523Z,14.47
2022-09-28T13:45:20.303Z,14.52
2022-09-28T13:47:50.022Z,14.67
2022-09-28T13:50:34.975Z,14.57
2022-09-28T13:53:50.226Z,14.79
2022-09-28T13:56:49.279Z,14.61
2022-09-28T13:59:21.986Z,14.81
2022-09-28T14:02:06.635Z,14.73
2022-09-28T14:05:03.216Z,14.88
2022-09-28T14:07:35.825Z,14.99
2022-09-28T14:10:14.918Z,14.88
2022-09-28T14:12:49.003Z,14.81
2022-09-28T14:15:40.355Z,14.77
2022-09-28T14:18:16.242Z,14.74
2022-09-28T14:20:56.350Z,14.74
2022-09-28T14:24:04.561Z,14.74
2022-09-28T14:27:04.594Z,14.66
2022-09-28T14:29:37.380Z,14.85
2022-09-28T14:32:25.226Z,14.75
2022-09-28T14:34:58.541Z,14.83
2022-09-28T14:37:50.983Z,14.70
2022-09-28T14:40:45.834Z,14.38
2022-09-28T14:43:24.927Z,14.45
2022-09-28T14:46:11.772Z,14.38
2022-09-28T14:48:57.810Z,14.51
2022-09-28T14:51:27.516Z,14.48
2022-09-28T14:53:56.703Z,14.54
2022-09-28T14:56:24.947Z,14.44
2022-09-28T14:58:55.096Z,14.53
2022-09-28T15:01:24.794Z,14.57
2022-09-28T15:03:54.972Z,14.50
2022-09-28T15:06:25.494Z,14.21
2022-09-28T15:08:52.185Z,14.09
2022-09-28T15:11:24.703Z,14.07
2022-09-28T15:14:06.266Z,14.28
2022-09-28T15:16:34.185Z,14.42
2022-09-28T15:19:10.472Z,14.43
2022-09-28T15:21:39.191Z,14.32
2022-09-28T15:24:26.185Z,14.43
2022-09-28T15:26:53.382Z,14.36
2022-09-28T15:29:22.960Z,14.43
2022-09-28T15:31:54.174Z,14.34
2022-09-28T15:34:49.990Z,14.46
2022-09-28T15:37:40.617Z,14.38
2022-09-28T15:40:13.602Z,14.43
2022-09-28T15:42:40.338Z,14.44
2022-09-28T15:45:25.585Z,14.41
2022-09-28T15:47:57.636Z,14.17
2022-09-28T15:50:31.848Z,14.16
2022-09-28T15:53:03.856Z,14.25
2022-09-28T15:55:36.761Z,14.21
2022-09-28T15:58:12.702Z,14.11
2022-09-28T16:00:40.345Z,14.02
2022-09-28T16:03:07.088Z,14.05
2022-09-28T16:05:47.323Z,14.08
2022-09-28T16:08:24.345Z,13.99
2022-09-28T16:10:59.968Z,13.91
2022-09-28T16:13:26.849Z,13.92
2022-09-28T16:15:58.229Z,13.88
2022-09-28T16:18:29.878Z,13.87
2022-09-28T16:21:35.261Z,13.90
2022-09-28T16:24:02.064Z,13.83
2022-09-28T16:26:39.086Z,13.80
2022-09-28T16:29:42.113Z,13.75
2022-09-28T16:32:27.153Z,13.67
2022-09-28T16:35:09.330Z,13.62
2022-09-28T16:37:36.398Z,13.58
2022-09-28T16:40:04.569Z,13.57
2022-09-28T16:42:32.019Z,13.52
2022-09-28T16:44:59.279Z,13.50
2022-09-28T16:47:26.108Z,13.43
2022-09-28T16:49:52.915Z,13.42
2022-09-28T16:52:39.739Z,13.43
2022-09-28T16:55:40.562Z,13.42
2022-09-28T16:58:04.892Z,13.36
2022-09-28T17:00:33.656Z,13.31
2022-09-28T17:03:00.530Z,13.30
2022-09-28T17:05:27.431Z,13.25
2022-09-28T17:08:01.422Z,13.25
2022-09-28T17:10:55.719Z,13.22
2022-09-28T17:13:33.421Z,13.17
2022-09-28T17:16:01.823Z,13.14
2022-09-28T17:18:32.284Z,13.11
2022-09-28T17:21:03.310Z,13.09
2022-09-28T17:23:30.551Z,13.08
2022-09-28T17:25:59.165Z,13.07
2022-09-28T17:28:27.683Z,13.05
2022-09-28T17:30:54.840Z,13.03
2022-09-28T17:33:21.716Z,13.01
2022-09-28T17:35:48.521Z,13.00
2022-09-28T17:38:15.871Z,12.94
2022-09-28T17:40:43.818Z,12.96
2022-09-28T17:43:10.608Z,12.94
2022-09-28T17:45:41.740Z,12.92
2022-09-28T17:48:15.907Z,12.91
2022-09-28T17:50:46.385Z,12.89
2022-09-28T17:53:14.011Z,12.88
2022-09-28T17:55:43.179Z,12.89
2022-09-28T17:58:20.045Z,12.86
2022-09-28T18:00:48.208Z,12.85
2022-09-28T18:03:17.057Z,12.81
2022-09-28T18:05:44.638Z,12.82
2022-09-28T18:08:14.416Z,12.80
2022-09-28T18:10:41.452Z,12.66
2022-09-28T18:13:08.648Z,12.70
2022-09-28T18:15:36.273Z,12.78
2022-09-28T18:18:03.291Z,12.78
2022-09-28T18:20:30.758Z,12.80
2022-09-28T18:22:57.920Z,12.75
2022-09-28T18:25:24.960Z,12.80
2022-09-28T18:27:54.635Z,12.78
2022-09-28T18:30:21.594Z,12.81
2022-09-28T18:32:48.463Z,12.77
2022-09-28T18:35:19.390Z,12.77
2022-09-28T18:37:49.947Z,12.77
2022-09-28T18:40:16.968Z,12.77
2022-09-28T18:42:43.880Z,12.77
2022-09-28T18:45:11.440Z,12.76
2022-09-28T18:47:39.200Z,12.72
2022-09-28T18:50:06.564Z,12.71
2022-09-28T18:52:36.531Z,12.70
2022-09-28T18:55:04.325Z,12.66
2022-09-28T18:57:33.627Z,12.63
2022-09-28T19:00:01.714Z,12.60
2022-09-28T19:02:28.658Z,12.59
2022-09-28T19:04:55.531Z,12.57
2022-09-28T19:07:24.184Z,12.57
2022-09-28T19:09:51.442Z,12.54
2022-09-28T19:12:19.099Z,12.52
2022-09-28T19:14:46.019Z,12.50
2022-09-28T19:17:12.745Z,12.48
2022-09-28T19:19:39.495Z,12.43
2022-09-28T19:22:06.299Z,12.41
2022-09-28T19:24:34.130Z,12.38
2022-09-28T19:27:00.987Z,12.36
2022-09-28T19:29:27.760Z,12.32
2022-09-28T19:31:56.817Z,12.28
2022-09-28T19:34:27.056Z,12.28
2022-09-28T19:36:53.838Z,12.22
2022-09-28T19:39:20.514Z,12.21
2022-09-28T19:41:51.388Z,12.17
2022-09-28T19:44:25.226Z,12.11
2022-09-28T19:46:54.766Z,12.07
2022-09-28T19:49:22.788Z,12.03
2022-09-28T19:52:11.591Z,12.01
2022-09-28T19:54:37.621Z,11.94
2022-09-28T19:57:08.137Z,11.89
2022-09-28T19:59:36.758Z,11.84
2022-09-28T20:02:05.523Z,11.79
2022-09-28T20:04:32.439Z,11.72
2022-09-28T20:06:59.151Z,11.69
2022-09-28T20:09:25.981Z,11.66
2022-09-28T20:11:53.267Z,11.58
2022-09-28T20:14:22.383Z,11.55
2022-09-28T20:16:51.223Z,11.50
2022-09-28T20:19:21.194Z,11.46
2022-09-28T20:21:48.478Z,11.41
2022-09-28T20:24:16.693Z,11.38
2022-09-28T20:26:44.733Z,11.35
2022-09-28T20:29:12.067Z,11.32
2022-09-28T20:31:38.863Z,11.30
2022-09-28T20:34:06.595Z,11.33
2022-09-28T20:36:33.667Z,11.27
2022-09-28T20:39:04.393Z,11.10
2022-09-28T20:41:35.763Z,11.18
2022-09-28T20:44:05.815Z,11.29
2022-09-28T20:46:36.107Z,11.35
2022-09-28T20:49:03.840Z,11.20
2022-09-28T20:51:31.089Z,11.28
2022-09-28T20:53:58.716Z,11.29
2022-09-28T20:56:26.304Z,11.38
2022-09-28T20:58:54.024Z,11.41
2022-09-28T21:01:23.004Z,11.45
2022-09-28T21:03:57.639Z,11.51
2022-09-28T21:06:26.948Z,11.54
2022-09-28T21:08:53.733Z,11.58
2022-09-28T21:11:22.714Z,11.62
2022-09-28T21:13:53.664Z,11.62
2022-09-28T21:16:20.844Z,11.62
2022-09-28T21:18:47.942Z,11.66
2022-09-28T21:21:16.143Z,11.64
2022-09-28T21:23:45.003Z,11.69
2022-09-28T21:26:19.040Z,11.72
2022-09-28T21:28:46.106Z,11.74
2022-09-28T21:31:12.985Z,11.76
2022-09-28T21:33:39.684Z,11.74
2022-09-28T21:36:07.883Z,11.75
2022-09-28T21:38:34.637Z,11.71
2022-09-28T21:41:01.405Z,11.77
2022-09-28T21:43:29.152Z,11.78
2022-09-28T21:45:56.403Z,11.77
2022-09-28T21:48:24.261Z,11.78
2022-09-28T21:51:02.733Z,11.75
2022-09-28T21:53:35.127Z,11.77
2022-09-28T21:56:02.584Z,11.82
2022-09-28T21:58:31.111Z,11.79
2022-09-28T22:01:07.125Z,11.78
2022-09-28T22:03:35.689Z,11.76
2022-09-28T22:06:03.430Z,11.80
2022-09-28T22:08:30.442Z,11.81
2022-09-28T22:11:24.495Z,11.80
2022-09-28T22:13:56.005Z,11.78
2022-09-28T22:16:25.442Z,11.81
2022-09-28T22:18:52.356Z,11.82
2022-09-28T22:21:21.672Z,11.82
2022-09-28T22:23:48.628Z,11.81
2022-09-28T22:26:20.980Z,11.80
2022-09-28T22:28:58.965Z,11.78
2022-09-28T22:31:30.986Z,11.73
2022-09-28T22:33:58.057Z,11.73
2022-09-28T22:36:26.014Z,11.71
2022-09-28T22:38:52.888Z,11.66
2022-09-28T22:41:22.885Z,11.62
2022-09-28T22:43:50.849Z,11.58
2022-09-28T22:46:20.225Z,11.52
2022-09-28T22:48:48.727Z,11.47
2022-09-28T22:51:15.911Z,11.44
2022-09-28T22:53:43.119Z,11.35
2022-09-28T22:56:12.593Z,11.32
2022-09-28T22:58:42.732Z,11.25
2022-09-28T23:01:14.519Z,11.23
2022-09-28T23:03:42.376Z,11.16
2022-09-28T23:06:10.135Z,11.11
2022-09-28T23:08:36.835Z,11.09
2022-09-28T23:11:04.358Z,11.05
2022-09-28T23:13:31.306Z,11.04
2022-09-28T23:16:00.393Z,11.01
2022-09-28T23:18:29.199Z,10.97
2022-09-28T23:20:56.993Z,10.96
2022-09-28T23:23:23.846Z,10.94
2022-09-28T23:25:51.555Z,10.91
2022-09-28T23:28:19.104Z,10.88
2022-09-28T23:30:45.846Z,10.84
2022-09-28T23:33:13.958Z,10.84
2022-09-28T23:35:41.294Z,10.83
2022-09-28T23:38:11.981Z,10.78
2022-09-28T23:40:38.776Z,10.76
2022-09-28T23:43:05.567Z,10.75
2022-09-28T23:45:32.247Z,10.73
2022-09-28T23:47:58.964Z,10.60
2022-09-28T23:50:25.678Z,10.67
2022-09-28T23:52:52.522Z,10.74
2022-09-28T23:55:19.299Z,10.77
2022-09-28T23:57:46.377Z,10.78
